Time;durP1;ratioP1;P1;durP2;ratioP2;P2;SDS_P1;SDS_P2;PMS_P1;PMS_P2;Temp;Humidity;BMP_temperature;BMP_pressure;BME280_temperature;BME280_humidity;BME280_pressure;Samples;Min_cycle;Max_cycle;Signal;HPM_P1;HPM_P2
2022/01/26 00:06:36;;;;;;;45.23;26.48;;;;;;;-1.46;63.52;100689.87;1715766;82;20952;-72
2022/01/26 00:09:04;;;;;;;41.18;26.10;;;;;;;-1.44;63.59;100688.41;1715283;82;21115;-72
2022/01/26 00:11:31;;;;;;;42.80;26.07;;;;;;;-1.42;63.52;100689.02;1714928;82;21051;-73
2022/01/26 00:14:02;;;;;;;42.58;26.45;;;;;;;-1.44;63.57;100684.47;1714870;82;21051;-72
2022/01/26 00:16:43;;;;;;;44.50;26.65;;;;;;;-1.43;63.74;100689.52;1715413;82;21149;-71
2022/01/26 00:19:21;;;;;;;40.52;25.80;;;;;;;-1.38;63.75;100698.19;1716380;82;21004;-74
2022/01/26 00:21:50;;;;;;;45.08;28.10;;;;;;;-1.37;63.67;100690.63;1716308;82;21504;-73
2022/01/26 00:29:33;;;;;;;41.35;25.60;;;;;;;-1.36;63.75;100677.84;1716695;82;20952;-70
2022/01/26 00:40:30;;;;;;;45.70;27.07;;;;;;;-1.43;64.04;100669.88;1714724;82;21258;-71
2022/01/26 00:42:56;;;;;;;45.55;27.82;;;;;;;-1.37;64.07;100673.61;1715455;82;21008;-70
2022/01/26 00:45:27;;;;;;;44.30;27.25;;;;;;;-1.33;64.10;100667.02;1691575;82;20988;-72
2022/01/26 00:47:53;;;;;;;45.92;27.35;;;;;;;-1.31;64.14;100667.66;1715091;82;21080;-73
2022/01/26 00:50:20;;;;;;;44.10;26.52;;;;;;;-1.29;64.18;100659.61;1715870;82;21513;-74
2022/01/26 00:52:53;;;;;;;43.70;26.82;;;;;;;-1.29;64.21;100653.06;1716220;82;20995;-72
2022/01/26 00:55:19;;;;;;;45.50;27.65;;;;;;;-1.28;64.26;100656.83;1715774;82;21074;-73
2022/01/26 00:57:45;;;;;;;44.90;27.13;;;;;;;-1.22;64.37;100652.20;1715890;82;20980;-73
2022/01/26 01:00:17;;;;;;;46.28;28.65;;;;;;;-1.17;64.33;100653.47;1711725;82;21149;-73
2022/01/26 01:02:43;;;;;;;45.85;28.98;;;;;;;-1.18;64.29;100650.03;1718579;81;20994;-71
2022/01/26 01:05:17;;;;;;;47.75;28.30;;;;;;;-1.17;64.33;100646.41;1696949;83;20984;-72
2022/01/26 01:07:41;;;;;;;46.58;28.27;;;;;;;-1.15;64.37;100651.46;1690103;84;21609;-71
2022/01/26 01:10:10;;;;;;;44.58;28.52;;;;;;;-1.13;64.42;100638.50;1721663;82;21547;-72
2022/01/26 01:12:42;;;;;;;45.92;28.10;;;;;;;-1.12;64.37;100634.88;1722029;82;21646;-72
2022/01/26 01:15:07;;;;;;;47.00;28.10;;;;;;;-1.09;64.41;100636.34;1721657;82;21025;-72
2022/01/26 01:17:43;;;;;;;50.78;29.32;;;;;;;-1.08;64.42;100632.75;1721772;82;21152;-72
2022/01/26 01:20:24;;;;;;;43.52;27.30;;;;;;;-1.07;64.42;100636.98;1721911;83;21503;-72
2022/01/26 01:23:16;;;;;;;47.20;28.00;;;;;;;-1.01;64.44;100638.89;1721667;82;21017;-73
2022/01/26 01:28:24;;;;;;;50.00;29.15;;;;;;;-1.07;64.35;100633.05;1721967;82;20981;-73
2022/01/26 01:30:47;;;;;;;45.50;29.65;;;;;;;-1.15;64.40;100620.02;1721675;82;21021;-72
2022/01/26 01:33:17;;;;;;;50.30;29.90;;;;;;;-1.20;64.55;100615.31;1721951;82;20935;-72
2022/01/26 01:35:42;;;;;;;47.78;29.18;;;;;;;-1.21;64.65;100609.77;1721646;83;21429;-73
2022/01/26 01:38:10;;;;;;;46.90;29.32;;;;;;;-1.20;64.73;100605.64;1721840;82;21132;-73
2022/01/26 01:40:40;;;;;;;46.18;29.07;;;;;;;-1.14;64.74;100603.31;1721565;83;20977;-72
2022/01/26 01:43:08;;;;;;;50.10;29.65;;;;;;;-1.17;64.78;100601.05;1722164;82;20953;-73
2022/01/26 01:45:41;;;;;;;49.93;29.87;;;;;;;-1.20;64.85;100593.84;1721096;82;20965;-71
2022/01/26 01:48:07;;;;;;;49.67;30.40;;;;;;;-1.17;64.92;100590.06;1722077;83;20956;-72
2022/01/26 01:50:40;;;;;;;46.77;30.23;;;;;;;-1.11;64.87;100588.54;1721864;83;21801;-72
2022/01/26 01:53:03;;;;;;;49.23;30.12;;;;;;;-1.09;64.86;100584.72;1722098;82;21049;-71
2022/01/26 01:55:32;;;;;;;47.67;29.42;;;;;;;-1.04;64.90;100578.45;1721735;82;21036;-72
2022/01/26 01:57:59;;;;;;;48.75;30.43;;;;;;;-1.00;64.89;100580.22;1721828;83;20997;-72
2022/01/26 02:00:26;;;;;;;48.35;29.55;;;;;;;-1.01;64.92;100582.03;1721716;83;21074;-71
2022/01/26 02:02:53;;;;;;;50.95;30.88;;;;;;;-1.00;64.97;100583.65;1713869;83;21509;-71
2022/01/26 02:05:20;;;;;;;49.88;31.15;;;;;;;-1.00;65.01;100580.22;1701898;84;21014;-73
2022/01/26 02:07:47;;;;;;;47.65;30.68;;;;;;;-1.00;65.03;100582.34;1702085;84;21026;-71
2022/01/26 02:10:13;;;;;;;49.33;30.37;;;;;;;-0.95;65.00;100581.31;1701601;84;21030;-72
2022/01/26 02:12:45;;;;;;;51.63;30.75;;;;;;;-0.90;65.02;100580.76;1701951;84;20986;-72
2022/01/26 02:15:16;;;;;;;49.27;30.82;;;;;;;-0.90;64.96;100568.95;1701137;84;21618;-72
2022/01/26 02:51:09;;;;;;;54.80;32.30;;;;;;;-1.00;64.92;100567.92;1701714;84;21106;-72
2022/01/26 02:55:18;;;;;;;54.20;32.20;;;;;;;-1.07;65.13;100572.77;1701604;82;21789;-70
2022/01/26 03:00:42;;;;;;;52.62;31.75;;;;;;;-1.15;65.28;100570.21;1702196;84;21079;-69
2022/01/26 03:03:10;;;;;;;52.03;30.70;;;;;;;-1.12;65.47;100573.78;1701782;83;21030;-69
2022/01/26 03:05:33;;;;;;;52.58;31.75;;;;;;;-1.05;65.58;100563.73;1698221;84;21068;-70
2022/01/26 03:08:06;;;;;;;58.92;33.18;;;;;;;-0.96;65.65;100568.37;1702008;84;21532;-70
2022/01/26 03:10:54;;;;;;;53.02;32.35;;;;;;;-0.89;65.58;100578.44;1701738;84;20950;-71
2022/01/26 03:13:09;;;;;;;57.08;32.85;;;;;;;-0.90;65.53;100576.83;1693341;84;21164;-71
2022/01/26 03:15:40;;;;;;;58.40;33.28;;;;;;;-0.88;65.55;100577.97;1701558;82;21058;-71
2022/01/26 03:18:26;;;;;;;56.92;32.70;;;;;;;-0.87;65.57;100581.70;1701879;84;21052;-72
2022/01/26 03:20:37;;;;;;;55.03;31.82;;;;;;;-0.86;65.54;100574.66;1701349;84;21142;-72
2022/01/26 03:36:46;;;;;;;42.00;25.50;;;;;;;-0.78;65.82;100575.38;1701540;84;21077;-72
2022/01/26 03:39:09;;;;;;;58.58;33.63;;;;;;;-0.74;65.85;100579.26;1701769;84;20991;-73
2022/01/26 03:41:41;;;;;;;57.67;32.88;;;;;;;-0.67;65.87;100583.28;1701435;84;21101;-73
2022/01/26 03:44:05;;;;;;;53.28;32.13;;;;;;;-0.64;65.89;100585.53;1701342;82;21078;-72
2022/01/26 03:46:32;;;;;;;56.75;32.88;;;;;;;-0.65;65.92;100592.30;1701475;84;21138;-73
2022/01/26 03:48:59;;;;;;;53.52;32.10;;;;;;;-0.74;65.94;100581.88;1701956;84;21042;-72
2022/01/26 03:51:27;;;;;;;57.90;32.30;;;;;;;-0.82;65.96;100583.30;1701600;84;21589;-71
2022/01/26 03:53:54;;;;;;;53.58;32.85;;;;;;;-0.90;66.08;100586.50;1701997;84;21137;-71
2022/01/26 03:56:20;;;;;;;57.88;33.70;;;;;;;-0.99;66.25;100585.30;1701509;84;21521;-72
2022/01/26 03:58:47;;;;;;;58.00;33.42;;;;;;;-1.05;66.41;100584.70;1702054;84;21493;-72
2022/01/26 04:01:14;;;;;;;56.30;33.28;;;;;;;-1.09;66.56;100587.34;1701798;83;21015;-72
2022/01/26 04:03:43;;;;;;;56.23;32.75;;;;;;;-1.10;66.73;100587.53;1701900;84;21073;-72
2022/01/26 04:06:09;;;;;;;52.98;32.00;;;;;;;-1.15;66.88;100587.25;1701772;84;20999;-72
2022/01/26 04:08:39;;;;;;;53.08;32.45;;;;;;;-1.22;67.04;100584.06;1701914;84;21058;-72
2022/01/26 04:13:51;;;;;;;57.55;32.83;;;;;;;-1.21;67.37;100582.25;1702071;82;20975;-72
2022/01/26 04:16:18;;;;;;;58.92;34.27;;;;;;;-1.16;67.47;100585.63;1701780;84;21033;-71
2022/01/26 04:18:46;;;;;;;59.98;33.30;;;;;;;-1.12;67.56;100579.84;1701588;84;21082;-72
2022/01/26 04:21:23;;;;;;;57.43;33.42;;;;;;;-1.06;67.63;100584.36;1701442;84;20980;-71
2022/01/26 04:23:48;;;;;;;60.55;33.80;;;;;;;-1.00;67.65;100577.09;1701831;84;21820;-72
2022/01/26 04:26:11;;;;;;;55.88;32.93;;;;;;;-0.99;67.67;100583.98;1700501;84;21549;-72
2022/01/26 04:28:44;;;;;;;56.00;32.35;;;;;;;-0.94;67.74;100574.26;1701647;84;21046;-71
2022/01/26 04:31:09;;;;;;;54.15;32.88;;;;;;;-0.89;67.71;100577.13;1701498;83;21581;-72
2022/01/26 04:33:36;;;;;;;51.60;31.45;;;;;;;-0.83;67.72;100572.48;1701785;84;21026;-72
2022/01/26 04:36:07;;;;;;;55.80;33.35;;;;;;;-0.78;67.68;100566.20;1701388;82;22013;-73
2022/01/26 04:38:42;;;;;;;57.83;33.33;;;;;;;-0.79;67.65;100568.52;1704995;82;21006;-72
2022/01/26 04:41:27;;;;;;;55.12;32.45;;;;;;;-0.77;67.74;100576.19;1700097;84;21141;-72
2022/01/26 04:43:44;;;;;;;54.23;31.42;;;;;;;-0.73;67.71;100580.88;1701484;84;21034;-72
2022/01/26 04:46:10;;;;;;;55.20;33.73;;;;;;;-0.73;67.65;100575.63;1701650;82;21014;-73
2022/01/26 04:48:36;;;;;;;56.23;34.15;;;;;;;-0.81;67.67;100575.74;1702111;84;21505;-71
2022/01/26 04:51:03;;;;;;;51.85;30.97;;;;;;;-0.83;67.73;100580.34;1707290;82;21478;-72
2022/01/26 04:53:30;;;;;;;51.37;31.33;;;;;;;-0.84;67.79;100582.66;1714579;83;21451;-72
2022/01/26 04:55:57;;;;;;;54.13;32.53;;;;;;;-0.82;67.89;100578.56;1710993;82;21066;-72
2022/01/26 04:58:24;;;;;;;55.73;33.45;;;;;;;-0.79;67.86;100583.41;1702016;83;20978;-72
2022/01/26 05:00:50;;;;;;;54.13;33.33;;;;;;;-0.79;67.88;100585.56;1701811;82;22135;-72
2022/01/26 05:03:17;;;;;;;55.05;32.58;;;;;;;-0.77;67.90;100586.68;1701919;83;21069;-73
2022/01/26 05:05:44;;;;;;;56.68;34.48;;;;;;;-0.78;67.92;100579.31;1701385;84;21506;-72
2022/01/26 05:08:11;;;;;;;57.03;34.35;;;;;;;-0.78;67.98;100580.63;1701424;82;20999;-72
2022/01/26 05:10:42;;;;;;;54.27;33.83;;;;;;;-0.68;68.04;100586.91;1701791;84;21524;-72
2022/01/26 05:13:06;;;;;;;54.80;33.02;;;;;;;-0.61;68.11;100583.86;1702839;82;21787;-72
2022/01/26 05:15:35;;;;;;;60.08;34.27;;;;;;;-0.53;68.05;100589.02;1701280;82;21038;-72
2022/01/26 05:18:01;;;;;;;57.03;34.35;;;;;;;-0.44;67.94;100592.34;1702067;84;21034;-72
2022/01/26 05:20:28;;;;;;;56.68;34.38;;;;;;;-0.41;67.88;100595.91;1705051;82;21030;-72
2022/01/26 05:22:55;;;;;;;59.50;34.45;;;;;;;-0.40;67.79;100593.59;1701839;82;21019;-72
2022/01/26 05:25:22;;;;;;;57.00;34.53;;;;;;;-0.37;67.72;100599.78;1701776;84;21507;-73
2022/01/26 05:27:48;;;;;;;63.73;37.65;;;;;;;-0.32;67.77;100601.88;1701769;84;21034;-73
2022/01/26 05:30:15;;;;;;;65.75;37.75;;;;;;;-0.24;67.77;100598.62;1701492;82;21505;-72
2022/01/26 05:32:42;;;;;;;66.77;38.25;;;;;;;-0.17;67.70;100599.20;1701143;82;21458;-72
2022/01/26 05:35:09;;;;;;;64.87;37.93;;;;;;;-0.09;67.66;100601.73;1701821;84;21581;-71
2022/01/26 05:37:35;;;;;;;68.25;39.05;;;;;;;-0.05;67.64;100602.97;1701904;82;21138;-73
2022/01/26 05:40:04;;;;;;;70.30;39.05;;;;;;;-0.01;67.59;100607.66;1701634;84;21592;-73
2022/01/26 05:42:31;;;;;;;68.45;40.03;;;;;;;-0.01;67.50;100606.34;1703020;82;21149;-72
2022/01/26 05:45:02;;;;;;;71.00;40.75;;;;;;;-0.06;67.47;100610.55;1703789;83;21097;-73
2022/01/26 05:47:26;;;;;;;71.17;39.67;;;;;;;-0.12;67.50;100611.28;1702046;84;21564;-72
2022/01/26 05:49:53;;;;;;;66.33;37.42;;;;;;;-0.15;67.56;100612.97;1701855;84;21508;-71
2022/01/26 05:52:19;;;;;;;67.95;36.73;;;;;;;-0.24;67.68;100613.06;1702023;82;21102;-72
2022/01/26 05:54:46;;;;;;;72.70;40.70;;;;;;;-0.28;67.85;100613.13;1701797;84;21058;-73
2022/01/26 05:57:12;;;;;;;67.55;37.75;;;;;;;-0.33;68.00;100620.75;1701955;82;21085;-72
2022/01/26 05:59:39;;;;;;;61.75;33.58;;;;;;;-0.36;68.21;100621.59;1701664;84;21509;-71
2022/01/26 06:02:05;;;;;;;64.72;35.83;;;;;;;-0.40;68.48;100627.70;1702062;84;21508;-71
2022/01/26 06:04:33;;;;;;;58.92;32.48;;;;;;;-0.45;68.77;100625.34;1701583;82;20971;-71
2022/01/26 06:07:00;;;;;;;56.60;30.35;;;;;;;-0.51;69.23;100613.25;1702076;84;21089;-71
2022/01/26 06:09:26;;;;;;;53.35;29.05;;;;;;;-0.50;69.62;100620.61;1701973;84;21058;-72
2022/01/26 06:11:54;;;;;;;60.92;31.93;;;;;;;-0.50;69.85;100626.67;1701577;84;20975;-72
2022/01/26 06:14:21;;;;;;;52.38;28.98;;;;;;;-0.47;70.07;100625.50;1701822;84;21528;-72
2022/01/26 06:16:49;;;;;;;54.95;29.40;;;;;;;-0.44;70.25;100623.83;1701906;84;21038;-71
2022/01/26 06:19:15;;;;;;;57.75;30.70;;;;;;;-0.45;70.40;100627.45;1701871;84;21010;-72
2022/01/26 06:21:42;;;;;;;57.38;31.65;;;;;;;-0.48;70.50;100626.51;1701867;84;20971;-71
2022/01/26 06:24:08;;;;;;;56.83;30.32;;;;;;;-0.47;70.52;100628.13;1701984;84;21082;-72
2022/01/26 06:26:35;;;;;;;57.45;31.33;;;;;;;-0.49;70.62;100630.95;1701536;84;21093;-72
2022/01/26 06:29:02;;;;;;;54.75;28.85;;;;;;;-0.50;70.71;100634.55;1702068;84;20959;-72
2022/01/26 06:31:29;;;;;;;56.13;31.20;;;;;;;-0.52;70.75;100636.55;1701745;83;21153;-72
2022/01/26 06:33:56;;;;;;;54.58;30.15;;;;;;;-0.53;70.76;100638.03;1701789;84;21592;-72
2022/01/26 06:36:23;;;;;;;60.58;33.38;;;;;;;-0.50;70.78;100644.23;1701607;84;20992;-72
2022/01/26 06:38:50;;;;;;;57.73;30.30;;;;;;;-0.51;70.80;100648.67;1701681;83;21443;-72
2022/01/26 06:41:23;;;;;;;58.10;31.33;;;;;;;-0.50;70.82;100645.04;1701776;83;21344;-72
2022/01/26 06:43:49;;;;;;;61.13;32.40;;;;;;;-0.51;70.78;100645.23;1702039;83;21082;-72
2022/01/26 06:46:20;;;;;;;53.70;30.25;;;;;;;-0.49;70.79;100659.00;1701329;82;21093;-73
2022/01/26 06:51:08;;;;;;;54.18;28.20;;;;;;;-0.39;70.68;100661.34;1705642;82;21520;-73
2022/01/26 06:53:35;;;;;;;47.85;25.62;;;;;;;-0.39;70.48;100661.34;1675799;84;21038;-72
2022/01/26 06:56:02;;;;;;;50.80;28.07;;;;;;;-0.38;70.31;100670.34;1701885;83;21038;-72
2022/01/26 06:58:29;;;;;;;50.30;27.98;;;;;;;-0.38;70.16;100672.96;1701860;84;21046;-71
2022/01/26 07:00:57;;;;;;;50.90;28.38;;;;;;;-0.39;70.06;100668.72;1701776;84;21568;-71
2022/01/26 07:03:24;;;;;;;53.05;29.20;;;;;;;-0.42;70.06;100678.27;1701701;83;21548;-73
2022/01/26 07:05:51;;;;;;;54.85;30.48;;;;;;;-0.39;70.12;100683.15;1701080;82;21053;-73
2022/01/26 07:08:19;;;;;;;52.98;29.07;;;;;;;-0.33;70.09;100682.42;1701855;84;21086;-72
2022/01/26 07:10:49;;;;;;;52.78;28.30;;;;;;;-0.25;69.87;100684.94;1701734;84;21089;-71
2022/01/26 07:13:15;;;;;;;51.42;28.85;;;;;;;-0.18;69.74;100686.84;1701911;84;21489;-72
2022/01/26 07:21:28;;;;;;;51.00;28.07;;;;;;;-0.20;69.17;100692.25;1701574;84;21082;-71
2022/01/26 07:23:59;;;;;;;45.48;25.65;;;;;;;-0.21;69.05;100697.70;1702081;82;20995;-73
2022/01/26 07:26:30;;;;;;;49.53;27.85;;;;;;;-0.19;69.00;100697.03;1702243;84;27376;-73
2022/01/26 07:28:59;;;;;;;51.05;28.05;;;;;;;-0.19;68.89;100707.03;1701740;84;21160;-73
2022/01/26 07:31:26;;;;;;;46.63;24.77;;;;;;;-0.18;68.81;100705.21;1701472;83;21014;-72
2022/01/26 07:33:57;;;;;;;50.60;27.50;;;;;;;-0.17;68.73;100712.08;1701559;84;20975;-72
2022/01/26 07:36:24;;;;;;;52.78;28.35;;;;;;;-0.13;68.66;100717.27;1702052;84;20995;-72
2022/01/26 07:38:54;;;;;;;46.58;25.37;;;;;;;-0.09;68.61;100719.38;1701678;84;21077;-72
2022/01/26 07:41:20;;;;;;;52.20;28.80;;;;;;;-0.05;68.58;100713.25;1701875;84;21938;-73
2022/01/26 07:43:47;;;;;;;48.75;26.20;;;;;;;-0.02;68.45;100718.95;1701837;84;21041;-71
2022/01/26 07:46:13;;;;;;;57.88;30.68;;;;;;;0.01;68.40;100723.03;1701952;82;21003;-73
2022/01/26 07:48:40;;;;;;;52.25;28.32;;;;;;;0.02;68.35;100728.58;1701820;84;21026;-72
2022/01/26 07:51:07;;;;;;;48.45;26.75;;;;;;;0.04;68.20;100732.36;1701672;84;21121;-73
2022/01/26 07:53:35;;;;;;;56.05;30.27;;;;;;;0.04;68.16;100725.29;1704086;82;21152;-72
2022/01/26 07:56:02;;;;;;;53.28;30.17;;;;;;;0.04;68.23;100726.60;1702068;83;20966;-72
2022/01/26 07:58:28;;;;;;;52.75;29.20;;;;;;;0.08;68.18;100733.11;1702071;84;21026;-72
2022/01/26 08:00:56;;;;;;;51.33;28.87;;;;;;;0.09;68.16;100726.04;1701411;84;21073;-73
2022/01/26 08:03:22;;;;;;;58.63;31.77;;;;;;;0.08;68.15;100729.17;1701931;84;21565;-72
2022/01/26 08:05:50;;;;;;;56.75;30.72;;;;;;;0.09;68.16;100733.92;1701685;84;21010;-71
2022/01/26 08:08:17;;;;;;;58.08;31.10;;;;;;;0.12;68.11;100736.98;1701754;83;21553;-72
2022/01/26 08:10:48;;;;;;;52.20;28.57;;;;;;;0.14;68.07;100742.88;1701403;84;21525;-72
2022/01/26 08:13:13;;;;;;;49.42;26.80;;;;;;;0.16;68.08;100742.69;1701977;84;20991;-71
2022/01/26 08:15:40;;;;;;;50.33;29.05;;;;;;;0.14;67.91;100737.63;1702021;84;20998;-73
2022/01/26 08:18:06;;;;;;;52.25;29.63;;;;;;;0.10;67.90;100737.69;1701967;84;21583;-72
2022/01/26 08:20:34;;;;;;;52.33;28.60;;;;;;;0.10;67.99;100742.95;1701651;84;21179;-72
2022/01/26 08:23:00;;;;;;;48.02;27.30;;;;;;;0.14;67.97;100740.76;1702251;84;21078;-72
2022/01/26 08:25:28;;;;;;;48.15;28.75;;;;;;;0.20;67.83;100747.41;1701757;84;21089;-72
2022/01/26 08:28:02;;;;;;;46.28;26.00;;;;;;;0.22;67.67;100746.70;1702074;84;21447;-74
2022/01/26 08:30:24;;;;;;;47.08;25.40;;;;;;;0.26;67.47;100749.77;1701748;83;21146;-73
2022/01/26 08:32:51;;;;;;;49.83;28.73;;;;;;;0.30;67.23;100749.74;1702111;84;21090;-72
2022/01/26 08:35:17;;;;;;;50.20;26.57;;;;;;;0.32;67.13;100752.17;1701751;84;21039;-72
2022/01/26 08:37:44;;;;;;;44.98;25.08;;;;;;;0.39;67.12;100753.05;1701947;84;21038;-72
2022/01/26 08:40:11;;;;;;;45.83;25.95;;;;;;;0.45;66.88;100756.26;1701758;84;21153;-72
2022/01/26 08:42:39;;;;;;;45.78;25.80;;;;;;;0.45;66.69;100754.95;1701847;84;21151;-73
2022/01/26 08:45:06;;;;;;;45.88;25.37;;;;;;;0.48;66.51;100754.58;1701754;84;21542;-73
2022/01/26 08:47:34;;;;;;;45.52;25.70;;;;;;;0.49;66.38;100761.45;1701983;84;20991;-72
2022/01/26 08:50:00;;;;;;;40.90;23.52;;;;;;;0.50;66.29;100753.91;1701694;84;21695;-71
2022/01/26 08:52:27;;;;;;;46.75;25.97;;;;;;;0.55;66.21;100752.83;1701775;84;21623;-74
2022/01/26 08:54:54;;;;;;;40.28;23.35;;;;;;;0.63;66.20;100760.61;1713479;83;21910;-73
2022/01/26 08:57:21;;;;;;;41.58;23.65;;;;;;;0.73;65.96;100755.05;1715236;82;20899;-72
2022/01/26 08:59:48;;;;;;;49.08;24.65;;;;;;;0.80;65.65;100759.87;1701732;84;21548;-72
2022/01/26 09:02:15;;;;;;;41.90;23.65;;;;;;;0.85;65.37;100755.34;1702007;84;21149;-72
2022/01/26 09:04:42;;;;;;;42.08;22.82;;;;;;;0.91;65.19;100755.91;1701745;84;21542;-72
2022/01/26 09:07:09;;;;;;;37.60;21.52;;;;;;;1.00;64.80;100753.47;1706045;82;21073;-72
2022/01/26 09:09:44;;;;;;;36.50;20.72;;;;;;;1.06;64.63;100750.59;1701668;84;20978;-73
2022/01/26 09:12:18;;;;;;;42.58;23.67;;;;;;;1.10;64.32;100752.65;1701190;82;21034;-72
2022/01/26 09:14:46;;;;;;;41.08;22.50;;;;;;;1.13;64.13;100748.32;1701806;84;21114;-72
2022/01/26 09:17:14;;;;;;;37.10;21.12;;;;;;;1.13;63.73;100755.41;1701887;82;21062;-72
2022/01/26 09:19:43;;;;;;;38.90;22.98;;;;;;;1.13;63.66;100758.84;1701739;84;22146;-73
2022/01/26 09:22:12;;;;;;;37.75;22.10;;;;;;;1.18;63.64;100754.31;1702539;82;21011;-73
2022/01/26 09:24:40;;;;;;;36.77;21.82;;;;;;;1.31;63.53;100762.82;1701610;82;21065;-74
2022/01/26 09:27:09;;;;;;;36.03;21.85;;;;;;;1.36;63.18;100767.02;1702063;84;21058;-72
2022/01/26 09:29:36;;;;;;;36.73;20.25;;;;;;;1.36;62.88;100754.67;1701299;82;20976;-74
2022/01/26 09:32:04;;;;;;;37.05;21.42;;;;;;;1.34;62.81;100755.86;1701646;83;21533;-73
2022/01/26 09:34:35;;;;;;;35.52;20.85;;;;;;;1.35;62.75;100762.27;1701777;84;21070;-71
2022/01/26 09:37:05;;;;;;;33.05;18.90;;;;;;;1.38;62.77;100748.73;1701125;82;21477;-73
2022/01/26 09:39:32;;;;;;;35.83;20.80;;;;;;;1.44;62.86;100751.08;1701684;84;21047;-72
2022/01/26 09:42:00;;;;;;;34.00;19.48;;;;;;;1.56;62.80;100744.28;1701730;84;21089;-72
2022/01/26 09:44:26;;;;;;;33.75;19.85;;;;;;;1.66;62.57;100748.39;1701423;84;21538;-71
2022/01/26 09:46:53;;;;;;;31.05;20.02;;;;;;;1.73;62.37;100754.51;1701882;84;21026;-72
2022/01/26 09:49:20;;;;;;;31.20;18.00;;;;;;;1.84;62.20;100755.27;1701810;84;21050;-72
2022/01/26 09:51:50;;;;;;;29.23;18.50;;;;;;;1.94;62.02;100753.11;1676625;83;21084;-73
2022/01/26 09:54:18;;;;;;;31.15;18.12;;;;;;;1.99;61.93;100755.96;1716927;83;20971;-72
2022/01/26 09:56:51;;;;;;;28.15;17.87;;;;;;;2.08;61.42;100757.43;1715041;82;21133;-72
2022/01/26 09:59:18;;;;;;;29.25;17.50;;;;;;;2.11;61.14;100758.36;1712605;83;22292;-72
2022/01/26 10:01:50;;;;;;;29.00;18.12;;;;;;;2.19;60.86;100750.78;1712788;83;21495;-73
2022/01/26 10:04:35;;;;;;;29.45;15.95;;;;;;;2.20;60.74;100756.34;1713139;83;21011;-73
2022/01/26 10:07:22;;;;;;;27.80;16.40;;;;;;;2.24;60.51;100761.55;1713052;83;21154;-72
2022/01/26 10:09:57;;;;;;;26.25;16.60;;;;;;;2.21;60.24;100759.82;1712507;83;21564;-72
2022/01/26 10:17:47;;;;;;;26.07;16.05;;;;;;;2.19;60.18;100759.19;1712780;83;20992;-71
2022/01/26 10:20:17;;;;;;;25.57;14.43;;;;;;;2.19;60.09;100759.19;1712716;83;21569;-72
2022/01/26 10:22:44;;;;;;;23.70;14.90;;;;;;;2.15;60.01;100750.88;1713162;83;21115;-72
2022/01/26 10:25:19;;;;;;;24.57;14.43;;;;;;;2.14;60.13;100755.84;1712746;83;21032;-73
2022/01/26 10:27:49;;;;;;;25.48;16.65;;;;;;;2.17;60.17;100751.47;1712867;83;21016;-72
2022/01/26 10:30:19;;;;;;;24.80;15.35;;;;;;;2.19;60.02;100757.36;1711650;82;21067;-71
2022/01/26 10:32:46;;;;;;;24.32;14.50;;;;;;;2.24;60.07;100747.06;1713218;83;21137;-72
2022/01/26 10:35:15;;;;;;;24.00;15.95;;;;;;;2.29;59.92;100742.50;1712383;83;22017;-70
2022/01/26 10:37:59;;;;;;;23.57;14.60;;;;;;;2.26;59.84;100749.48;1712916;83;21028;-71
2022/01/26 10:40:25;;;;;;;;;;;;;;;2.26;59.79;100748.97;1714534;83;20964;-72
2022/01/26 10:43:11;;;;;;;25.77;16.37;;;;;;;2.23;59.76;100744.61;1712791;83;20208;-73
2022/01/26 10:49:03;;;;;;;23.22;13.68;;;;;;;2.22;60.10;100749.58;1702110;84;21129;-72
2022/01/26 10:53:50;;;;;;;27.07;15.13;;;;;;;2.17;59.93;100748.83;1702134;84;20967;-72
2022/01/26 10:56:15;;;;;;;21.68;13.88;;;;;;;2.13;59.93;100745.48;1701504;84;21093;-72
2022/01/26 10:58:42;;;;;;;23.73;12.70;;;;;;;2.15;60.03;100747.42;1701983;84;21102;-71
2022/01/26 11:01:09;;;;;;;22.82;12.63;;;;;;;2.16;59.88;100751.67;1701793;84;21193;-71
2022/01/26 11:03:36;;;;;;;23.47;13.18;;;;;;;2.11;59.79;100755.72;1701718;84;20947;-72
2022/01/26 11:06:04;;;;;;;20.95;12.13;;;;;;;2.06;59.88;100750.21;1701647;84;21552;-71
2022/01/26 11:08:30;;;;;;;18.67;11.05;;;;;;;2.03;59.96;100753.74;1701836;84;21075;-72
2022/01/26 11:10:57;;;;;;;18.98;10.68;;;;;;;2.00;59.82;100752.31;1701737;84;21006;-72
2022/01/26 11:13:30;;;;;;;19.12;11.00;;;;;;;1.94;59.78;100749.16;1701941;84;21973;-72
2022/01/26 11:16:11;;;;;;;19.70;12.25;;;;;;;1.91;59.73;100751.34;1675471;84;21038;-72
2022/01/26 11:18:52;;;;;;;17.87;11.08;;;;;;;1.88;59.73;100752.58;1702371;84;21533;-72
2022/01/26 11:21:35;;;;;;;17.95;10.85;;;;;;;1.92;59.86;100755.12;1701785;84;21057;-73
2022/01/26 11:24:19;;;;;;;18.32;11.03;;;;;;;1.98;59.84;100756.17;1701872;84;21058;-72
2022/01/26 11:26:48;;;;;;;16.20;10.30;;;;;;;2.04;59.64;100759.31;1701996;84;21106;-72
2022/01/26 11:29:21;;;;;;;17.52;10.75;;;;;;;2.05;59.22;100758.33;1701740;84;21035;-74
2022/01/26 11:31:50;;;;;;;18.57;11.33;;;;;;;2.01;59.17;100761.86;1701662;83;20987;-72
2022/01/26 11:34:18;;;;;;;18.15;10.85;;;;;;;2.05;59.34;100764.91;1693718;84;21074;-72
2022/01/26 11:36:45;;;;;;;18.87;10.70;;;;;;;2.09;59.20;100771.41;1676005;84;21058;-72
2022/01/26 11:47:30;;;;;;;16.10;9.75;;;;;;;1.95;58.54;100762.63;1684202;84;21015;-72
2022/01/26 11:50:09;;;;;;;16.50;9.73;;;;;;;1.99;58.45;100765.69;1701558;83;21522;-72
2022/01/26 11:52:38;;;;;;;18.75;10.80;;;;;;;2.01;58.19;100760.55;1701868;84;20955;-71
2022/01/26 11:55:30;;;;;;;16.93;9.75;;;;;;;2.01;58.07;100752.64;1701268;84;21101;-73
2022/01/26 11:58:00;;;;;;;17.52;9.55;;;;;;;2.01;58.00;100746.56;1701899;83;21088;-73
2022/01/26 12:01:10;;;;;;;17.65;10.45;;;;;;;1.99;58.07;100750.69;1667822;84;21343;-74
2022/01/26 12:03:32;;;;;;;14.73;8.65;;;;;;;2.01;58.18;100751.32;1701785;84;21160;-71
2022/01/26 12:06:00;;;;;;;15.93;9.75;;;;;;;2.03;58.00;100753.23;1701465;84;21204;-71
2022/01/26 12:08:31;;;;;;;16.45;10.20;;;;;;;2.02;58.07;100757.40;1701773;84;21545;-73
2022/01/26 12:10:57;;;;;;;16.05;9.35;;;;;;;2.05;58.05;100755.19;1700992;84;21053;-73
2022/01/26 12:13:28;;;;;;;17.48;9.65;;;;;;;2.04;57.88;100757.52;1701816;84;21061;-72
2022/01/26 12:15:57;;;;;;;17.32;9.08;;;;;;;2.01;57.85;100764.49;1701562;84;21482;-71
2022/01/26 12:42:58;;;;;;;17.70;9.25;;;;;;;1.61;58.19;100777.44;1714413;83;21552;-72
2022/01/26 12:45:11;;;;;;;14.93;8.78;;;;;;;1.58;58.21;100772.55;1713926;83;21554;-72
2022/01/26 12:47:38;;;;;;;14.70;8.55;;;;;;;1.56;58.36;100777.69;1714314;83;21049;-73
2022/01/26 12:50:06;;;;;;;13.88;8.63;;;;;;;1.53;57.93;100782.83;1714080;83;21093;-72
2022/01/26 12:52:35;;;;;;;13.95;7.35;;;;;;;1.50;57.86;100788.48;1714327;83;20983;-71
2022/01/26 12:55:03;;;;;;;13.48;6.72;;;;;;;1.44;56.71;100781.34;1714018;83;22206;-72
2022/01/26 12:57:30;;;;;;;12.70;6.60;;;;;;;1.36;56.19;100782.31;1714386;83;21091;-72
2022/01/26 13:00:04;;;;;;;13.50;6.78;;;;;;;1.34;56.00;100782.18;1714046;83;21007;-72
2022/01/26 13:02:31;;;;;;;12.15;6.37;;;;;;;1.32;55.78;100782.38;1714532;83;21005;-72
2022/01/26 13:05:03;;;;;;;12.07;6.10;;;;;;;1.32;55.70;100782.89;1713972;83;21037;-72
2022/01/26 13:07:30;;;;;;;11.70;6.97;;;;;;;1.31;55.63;100782.56;1714456;83;21002;-74
2022/01/26 13:09:57;;;;;;;12.88;6.22;;;;;;;1.31;55.37;100789.94;1714326;83;21111;-73
2022/01/26 13:12:31;;;;;;;11.97;7.12;;;;;;;1.32;55.13;100781.06;1714423;83;21010;-71
2022/01/26 13:15:10;;;;;;;8.78;4.58;;;;;;;1.31;55.11;100772.84;1714322;83;21202;-72
2022/01/26 13:17:38;;;;;;;9.95;4.42;;;;;;;1.33;53.73;100776.61;1714255;83;21010;-73
2022/01/26 13:25:46;;;;;;;9.75;4.55;;;;;;;1.28;52.55;100789.01;1714262;83;22769;-73
2022/01/26 13:28:17;;;;;;;11.18;4.87;;;;;;;1.25;52.55;100788.10;1714168;83;21081;-73
2022/01/26 13:39:10;;;;;;;9.03;4.80;;;;;;;1.21;52.38;100801.80;1714517;83;21477;-72
2022/01/26 13:41:35;;;;;;;8.58;4.80;;;;;;;1.17;52.32;100804.00;1713964;83;21030;-72
2022/01/26 13:49:31;;;;;;;9.23;4.65;;;;;;;1.14;52.62;100806.50;1717050;83;21836;-72